Kalaheo, HI

6:13 AM HST on February 22, 2017 (GMT -1000)
Wheeler Army Air Field | | Change Station
Active Advisory: Small Craft Advisory

Elev 837 ft 21.48 °N, 158.04 °W | Updated 15 minutes ago

Mostly Cloudy
Mostly Cloudy
62 °F
Feels Like 62 °F
N
0
Wind Variable Wind from North

Today
High -- | Low -- °F
--% Chance of Precip.
Yesterday
High -- | Low -- °F
Precip. -- in
Pressure 30.21 in
Visibility 10.0 miles
Clouds Few 3500 ft
Dew Point 57 °F
Humidity 85%
Rainfall 0.01 in
Snow Depth Not available.
7:04 AM 6:39 PM
Waning Crescent, 16% visible
METAR PHHI 221558Z 00000KT 10SM FEW035 17/14 A3022 RMK AO2A SLP229 T01650139 $
Pressure 30.21 in
Visibility 10.0 miles
Clouds Few 3500 ft
Dew Point 57 °F
Humidity 85%
Rainfall 0.01 in
Snow Depth Not available.
7:04 AM 6:39 PM
Waning Crescent, 16% visible
METAR PHHI 221558Z 00000KT 10SM FEW035 17/14 A3022 RMK AO2A SLP229 T01650139 $

Get Your Daily Forecast Email!

Thanks for signing up!

Be on the lookout for a verification email in your inbox.

You'll start receiving the daily forecast at 8 AM.

×

10-Day Weather Forecast

Almanac

Astronomy

Feb. 22, 2017 Rise Set
Actual Time
Civil Twilight
Nautical Twilight
Astronomical Twilight
Moon
Length of Visible Light
Length of Day
Tomorrow will be .
, % of the Moon is Illuminated

Today's Extremes

State Highs State Lows

Community

WunderPhotos

Upload Photos

1,962,540 photos uploaded!

WunderBlog® & News

Nearby

Air Quality

  Air Quality AQ Index Pollutant
Not available.

Snow Depth

Station Depth Elevation

Earthquake Activity

City Distance Mag. Time & Date
Minimum magnitude displayed is 2.5.

Coastal Water Temperatures

Place Temperature

Stations

Nearby Weather Stations

Station Location Temp. Windchill Dew Point Humidity Wind Precip. Elev Updated Type
                   

Watches & Warnings

Small Craft Advisory
Issued: 3:39 AM HST Feb. 22, 2017 – National Weather Service

... Small Craft Advisory now in effect until 6 PM HST Thursday...

* winds and seas... northeast winds 20 to 30 kt. Seas 8 to 11 ft.

Precautionary/preparedness actions...

A Small Craft Advisory means that winds speeds of 25 to 33 knots
and/or seas 10 feet or greater are expected to produce conditions
hazardous to small craft. Inexperienced mariners... especially
those operating smaller vessels... should avoid navigating in
these conditions.



Gibbs